CSCL Autumn — VRNA7 — position and weather

sailwx.info

Track history (hours):
 
Tides and Currents Weather Stations Pressure Air Temp Water Temp Dewpoint Dewpoint Depression Visibility Wind Speed Wind Dir Waves Ship Positions

CSCL Autumn

Last reported at 2018-Feb-23 03:50 UTC. Time now 2018-Feb-25 21:51 UTC.
Position N 41°41' E 141°47'.

Length 335 m; draft 14 m.

Type: Ship (hazmat cat A). MMSI: 477117900.

Date/timePositionNaut miles runAvg speedWind from/ knotsBaromVisibWave heightAir tempDewpointWater temp
2018-Feb-23 03:50N 41°41' E 141°47'617.9
2018-Feb-23 03:30N 41°40' E 141°39'917.7
2018-Feb-23 03:01N 41°39' E 141°27'917.9
2018-Feb-23 02:31N 41°38' E 141°15'917.5
2018-Feb-23 02:00N 41°38' E 141°04'1019.0
2018-Feb-23 01:30N 41°38' E 140°51'918.2
2018-Feb-23 01:00N 41°34' E 140°40'1019.3
2018-Feb-23 00:30N 41°27' E 140°31'1019.7
2018-Feb-22 23:59N 41°21' E 140°20'918.9
2018-Feb-22 23:30N 41°15' E 140°10'58617.0
2018-Feb-21 13:00N 34°56' E 130°43'1114.6
2018-Feb-21 12:13N 34°49' E 130°32'415.0
2018-Feb-21 11:59N 34°46' E 130°29'714.8
2018-Feb-21 11:28N 34°41' E 130°22'714.1
2018-Feb-21 10:58N 34°37' E 130°15'714.9
2018-Feb-21 10:30N 34°33' E 130°08'815.2
2018-Feb-21 10:00N 34°29' E 130°01'915.0
2018-Feb-21 09:24N 34°23' E 129°53'455 9.2
2018-Feb-19 08:12N 30°37' E 122°05'0 0.0
2018-Feb-19 08:00N 30°37' E 122°05'1 0.8
2018-Feb-19 07:16N 30°36' E 122°04'2 1.9
2018-Feb-19 06:15N 30°36' E 122°06'411.8
2018-Feb-19 05:53N 30°34' E 122°11'  
Track history (hours):
 
Tides and Currents Weather Stations Pressure Air Temp Water Temp Dewpoint Dewpoint Depression Visibility Wind Speed Wind Dir Waves Ship Positions

CSCL Autumn

Last reported at 2018-Feb-23 03:50 UTC. Time now 2018-Feb-25 21:51 UTC.
Position N 41°41' E 141°47'.

Length 335 m; draft 14 m.

Type: Ship (hazmat cat A). MMSI: 477117900.

Date/timePositionNaut miles runAvg speedWind from/ knotsBaromVisibWave heightAir tempDewpointWater temp
2018-Feb-23 03:50N 41°41' E 141°47'617.9
2018-Feb-23 03:30N 41°40' E 141°39'917.7
2018-Feb-23 03:01N 41°39' E 141°27'917.9
2018-Feb-23 02:31N 41°38' E 141°15'917.5
2018-Feb-23 02:00N 41°38' E 141°04'1019.0
2018-Feb-23 01:30N 41°38' E 140°51'918.2
2018-Feb-23 01:00N 41°34' E 140°40'1019.3
2018-Feb-23 00:30N 41°27' E 140°31'1019.7
2018-Feb-22 23:59N 41°21' E 140°20'918.9
2018-Feb-22 23:30N 41°15' E 140°10'58617.0
2018-Feb-21 13:00N 34°56' E 130°43'1114.6
2018-Feb-21 12:13N 34°49' E 130°32'415.0
2018-Feb-21 11:59N 34°46' E 130°29'714.8
2018-Feb-21 11:28N 34°41' E 130°22'714.1
2018-Feb-21 10:58N 34°37' E 130°15'714.9
2018-Feb-21 10:30N 34°33' E 130°08'815.2
2018-Feb-21 10:00N 34°29' E 130°01'915.0
2018-Feb-21 09:24N 34°23' E 129°53'455 9.2
2018-Feb-19 08:12N 30°37' E 122°05'0 0.0
2018-Feb-19 08:00N 30°37' E 122°05'1 0.8
2018-Feb-19 07:16N 30°36' E 122°04'2 1.9
2018-Feb-19 06:15N 30°36' E 122°06'411.8
2018-Feb-19 05:53N 30°34' E 122°11'  

Dump ship's entire track history